Time;durP1;ratioP1;P1;durP2;ratioP2;P2;SDS_P1;SDS_P2;PMS_P1;PMS_P2;Temp;Humidity;BMP_temperature;BMP_pressure;BME280_temperature;BME280_humidity;BME280_pressure;Samples;Min_cycle;Max_cycle;Signal;HPM_P1;HPM_P2
2023/01/20 00:01:00;;;;;;;17.95;9.60;;;;;;;;;;4991896;28;20664;-85
2023/01/20 00:03:26;;;;;;;11.70;7.15;;;;;;;;;;5008872;28;20265;-84
2023/01/20 00:05:52;;;;;;;12.50;8.77;;;;;;;;;;5015804;28;20658;-84
2023/01/20 00:08:18;;;;;;;12.98;9.15;;;;;;;;;;5006196;28;20255;-84
2023/01/20 00:10:44;;;;;;;12.68;8.93;;;;;;;;;;5015627;28;20191;-84
2023/01/20 00:13:10;;;;;;;17.63;10.47;;;;;;;;;;5015130;28;20247;-82
2023/01/20 00:15:36;;;;;;;13.27;9.03;;;;;;;;;;4994448;28;20960;-82
2023/01/20 00:18:02;;;;;;;12.57;9.50;;;;;;;;;;5011705;28;20482;-81
2023/01/20 00:20:28;;;;;;;13.25;8.45;;;;;;;;;;4981025;28;20198;-82
2023/01/20 00:22:54;;;;;;;17.70;8.40;;;;;;;;;;4979924;28;20232;-81
2023/01/20 00:25:20;;;;;;;16.15;9.43;;;;;;;;;;5000698;28;20271;-82
2023/01/20 00:27:46;;;;;;;14.48;9.00;;;;;;;;;;4996093;28;20222;-81
2023/01/20 00:30:12;;;;;;;14.32;9.88;;;;;;;;;;4998035;28;20253;-81
2023/01/20 00:32:43;;;;;;;16.48;8.90;;;;;;;;;;4995025;28;20227;-81
2023/01/20 00:35:09;;;;;;;14.65;9.00;;;;;;;;;;4992322;28;20582;-81
2023/01/20 00:37:35;;;;;;;12.73;7.82;;;;;;;;;;4995093;28;20187;-81
2023/01/20 00:40:02;;;;;;;13.10;8.20;;;;;;;;;;4985053;28;20226;-81
2023/01/20 00:42:27;;;;;;;12.00;9.48;;;;;;;;;;5031323;28;20184;-81
2023/01/20 00:44:53;;;;;;;23.08;9.13;;;;;;;;;;5012669;28;20593;-81
2023/01/20 00:47:19;;;;;;;16.73;9.97;;;;;;;;;;4999435;28;20199;-82
2023/01/20 00:49:46;;;;;;;23.35;10.23;;;;;;;;;;5012165;28;20483;-82
2023/01/20 00:52:12;;;;;;;17.52;9.32;;;;;;;;;;5027136;28;20220;-81
2023/01/20 00:54:38;;;;;;;18.50;10.43;;;;;;;;;;5016766;28;20209;-82
2023/01/20 00:57:04;;;;;;;15.77;10.38;;;;;;;;;;5007632;28;20209;-82
2023/01/20 00:59:30;;;;;;;18.53;10.67;;;;;;;;;;5001449;28;20191;-82
2023/01/20 01:01:56;;;;;;;15.85;10.45;;;;;;;;;;4995034;28;20513;-82
2023/01/20 01:04:22;;;;;;;16.67;10.00;;;;;;;;;;5000781;28;20539;-81
2023/01/20 01:06:49;;;;;;;21.17;10.35;;;;;;;;;;4987824;28;20284;-82
2023/01/20 01:09:15;;;;;;;18.73;11.10;;;;;;;;;;5006326;28;20270;-82
2023/01/20 01:11:41;;;;;;;16.95;9.07;;;;;;;;;;5015944;28;20209;-81
2023/01/20 01:14:09;;;;;;;22.23;9.63;;;;;;;;;;5003432;28;20271;-81
2023/01/20 01:16:35;;;;;;;17.27;10.10;;;;;;;;;;5004693;28;20431;-81
2023/01/20 01:19:01;;;;;;;15.20;9.57;;;;;;;;;;5022583;28;20212;-81
2023/01/20 01:21:27;;;;;;;15.80;9.67;;;;;;;;;;5007034;28;20202;-82
2023/01/20 01:23:53;;;;;;;21.88;10.23;;;;;;;;;;5000616;28;20438;-81
2023/01/20 01:26:19;;;;;;;14.32;9.93;;;;;;;;;;5016320;28;20181;-81
2023/01/20 01:28:49;;;;;;;18.58;10.32;;;;;;;;;;5029898;28;20197;-81
2023/01/20 01:31:16;;;;;;;16.30;9.82;;;;;;;;;;5008644;28;20231;-81
2023/01/20 01:33:42;;;;;;;16.17;9.98;;;;;;;;;;5011475;28;20200;-81
2023/01/20 01:36:11;;;;;;;20.45;10.85;;;;;;;;;;4998817;28;20199;-82
2023/01/20 01:38:37;;;;;;;20.48;9.07;;;;;;;;;;5017031;28;20176;-82
2023/01/20 01:41:03;;;;;;;15.53;9.90;;;;;;;;;;4992456;28;20339;-81
2023/01/20 01:43:30;;;;;;;17.23;9.30;;;;;;;;;;5001703;28;20437;-81
2023/01/20 01:45:56;;;;;;;15.88;10.07;;;;;;;;;;5032030;28;20220;-81
2023/01/20 01:48:27;;;;;;;19.45;9.80;;;;;;;;;;5029562;28;20670;-82
2023/01/20 01:50:56;;;;;;;15.00;9.57;;;;;;;;;;5010152;28;20201;-82
2023/01/20 01:53:22;;;;;;;14.80;8.90;;;;;;;;;;5024622;28;20217;-81
2023/01/20 01:55:53;;;;;;;12.15;8.25;;;;;;;;;;5011057;28;20231;-81
2023/01/20 01:58:22;;;;;;;17.33;8.82;;;;;;;;;;5031520;28;20179;-81
2023/01/20 02:00:49;;;;;;;16.42;11.48;;;;;;;;;;5028052;28;20232;-82
2023/01/20 02:03:15;;;;;;;15.98;10.20;;;;;;;;;;5033332;28;20568;-81
2023/01/20 02:05:42;;;;;;;15.80;9.40;;;;;;;;;;5026030;28;20204;-81
2023/01/20 02:08:08;;;;;;;15.93;9.13;;;;;;;;;;5019867;28;20186;-81
2023/01/20 02:10:34;;;;;;;16.95;10.73;;;;;;;;;;5036429;28;20242;-81
2023/01/20 02:13:00;;;;;;;14.43;9.68;;;;;;;;;;5010796;28;20621;-82
2023/01/20 02:15:32;;;;;;;14.82;9.13;;;;;;;;;;4993526;28;20342;-81
2023/01/20 02:17:58;;;;;;;14.88;9.20;;;;;;;;;;5029407;28;20223;-81
2023/01/20 02:20:24;;;;;;;18.85;8.73;;;;;;;;;;5025464;28;20237;-81
2023/01/20 02:23:03;;;;;;;15.13;9.67;;;;;;;;;;5019083;28;20241;-81
2023/01/20 02:25:28;;;;;;;18.45;9.43;;;;;;;;;;5003919;28;20411;-80
2023/01/20 02:28:03;;;;;;;20.33;11.40;;;;;;;;;;5016989;28;20193;-80
2023/01/20 02:30:40;;;;;;;23.23;10.35;;;;;;;;;;5009131;28;20477;-80
2023/01/20 02:33:12;;;;;;;21.20;11.25;;;;;;;;;;5011100;28;20558;-81
2023/01/20 02:35:42;;;;;;;20.23;12.07;;;;;;;;;;5020861;28;20267;-82
2023/01/20 02:38:14;;;;;;;25.45;12.32;;;;;;;;;;5018156;28;20194;-81
2023/01/20 02:40:55;;;;;;;20.70;12.10;;;;;;;;;;5015859;28;20214;-82
2023/01/20 02:43:40;;;;;;;19.00;12.27;;;;;;;;;;5012434;28;20224;-81
2023/01/20 02:46:06;;;;;;;17.90;11.35;;;;;;;;;;5015476;28;20607;-82
2023/01/20 02:48:43;;;;;;;19.57;12.03;;;;;;;;;;5019189;28;20191;-82
2023/01/20 02:51:21;;;;;;;21.08;11.05;;;;;;;;;;5019775;28;20432;-81
2023/01/20 02:53:52;;;;;;;20.20;12.05;;;;;;;;;;5019374;28;20219;-81
2023/01/20 02:56:20;;;;;;;20.58;13.35;;;;;;;;;;5019693;28;20220;-82
2023/01/20 02:58:51;;;;;;;18.92;11.80;;;;;;;;;;5019349;28;20284;-81
2023/01/20 03:01:20;;;;;;;18.80;11.52;;;;;;;;;;4999667;28;20182;-84
2023/01/20 03:03:47;;;;;;;20.92;12.52;;;;;;;;;;5009543;28;20225;-81
2023/01/20 03:06:17;;;;;;;22.45;11.88;;;;;;;;;;5016970;28;20183;-81
2023/01/20 03:08:45;;;;;;;22.45;12.32;;;;;;;;;;5018685;28;20542;-80
2023/01/20 03:11:11;;;;;;;18.55;11.88;;;;;;;;;;5019546;28;20180;-81
2023/01/20 03:13:57;;;;;;;17.63;11.95;;;;;;;;;;5029501;28;20232;-81
2023/01/20 03:16:24;;;;;;;23.35;13.20;;;;;;;;;;5037846;28;20207;-82
2023/01/20 03:18:51;;;;;;;22.23;12.07;;;;;;;;;;5020232;28;20551;-81
2023/01/20 03:21:17;;;;;;;18.20;12.55;;;;;;;;;;5013928;28;20282;-81
2023/01/20 03:23:47;;;;;;;17.50;11.63;;;;;;;;;;5026831;28;20197;-81
2023/01/20 03:26:14;;;;;;;18.77;12.40;;;;;;;;;;5028300;28;20193;-81
2023/01/20 03:28:44;;;;;;;17.98;11.32;;;;;;;;;;5018743;28;20231;-81
2023/01/20 03:31:15;;;;;;;19.30;12.75;;;;;;;;;;5036232;28;20183;-81
2023/01/20 03:33:42;;;;;;;20.27;11.32;;;;;;;;;;5018623;28;20698;-81
2023/01/20 03:36:09;;;;;;;17.83;11.85;;;;;;;;;;5019165;28;20280;-82
2023/01/20 03:38:35;;;;;;;16.80;12.10;;;;;;;;;;5010839;28;20217;-81
2023/01/20 03:41:10;;;;;;;20.98;12.32;;;;;;;;;;5018093;28;20237;-81
2023/01/20 03:43:38;;;;;;;17.50;11.80;;;;;;;;;;5009656;28;20562;-81
2023/01/20 03:46:06;;;;;;;22.45;12.38;;;;;;;;;;4984936;28;20282;-81
2023/01/20 03:48:35;;;;;;;20.65;11.05;;;;;;;;;;4991031;28;20201;-81
2023/01/20 03:51:01;;;;;;;16.17;11.50;;;;;;;;;;5011039;28;20183;-81
2023/01/20 03:53:46;;;;;;;19.90;11.70;;;;;;;;;;4994979;28;20218;-81
2023/01/20 03:56:24;;;;;;;22.58;12.18;;;;;;;;;;4990174;28;20436;-81
2023/01/20 03:58:51;;;;;;;20.08;11.55;;;;;;;;;;4986864;28;20544;-81
2023/01/20 04:01:19;;;;;;;19.33;11.00;;;;;;;;;;4983501;28;20222;-81
2023/01/20 04:03:46;;;;;;;18.52;12.30;;;;;;;;;;4997709;28;20205;-82
2023/01/20 04:06:14;;;;;;;17.85;11.65;;;;;;;;;;5004492;28;20685;-81
2023/01/20 04:09:06;;;;;;;18.38;12.00;;;;;;;;;;5120082;27;20605;-81
2023/01/20 04:11:32;;;;;;;16.80;12.68;;;;;;;;;;5055860;28;20643;-82
2023/01/20 04:13:58;;;;;;;21.50;12.77;;;;;;;;;;5040225;28;20290;-81
2023/01/20 04:16:25;;;;;;;20.33;12.68;;;;;;;;;;5085990;28;20200;-81
2023/01/20 04:18:52;;;;;;;22.88;13.07;;;;;;;;;;5081650;28;20210;-81
2023/01/20 04:21:30;;;;;;;17.35;12.07;;;;;;;;;;5063796;28;20183;-81
2023/01/20 04:24:04;;;;;;;16.70;11.18;;;;;;;;;;5100965;28;20176;-81
2023/01/20 04:26:30;;;;;;;21.10;12.00;;;;;;;;;;5060436;28;20231;-81
2023/01/20 04:28:56;;;;;;;17.37;11.77;;;;;;;;;;5096604;28;20638;-81
2023/01/20 04:31:22;;;;;;;14.67;11.13;;;;;;;;;;5082540;28;20424;-83
2023/01/20 04:33:48;;;;;;;21.20;13.35;;;;;;;;;;5065238;28;20417;-81
2023/01/20 04:36:14;;;;;;;22.80;12.88;;;;;;;;;;5072469;28;20168;-81
2023/01/20 04:38:40;;;;;;;20.25;12.65;;;;;;;;;;5056082;28;20563;-81
2023/01/20 04:41:09;;;;;;;18.53;11.60;;;;;;;;;;5064802;28;20197;-81
2023/01/20 04:43:35;;;;;;;18.45;11.45;;;;;;;;;;5098028;28;20473;-81
2023/01/20 04:46:01;;;;;;;16.80;11.20;;;;;;;;;;5101691;28;20180;-80
2023/01/20 04:48:27;;;;;;;18.02;11.70;;;;;;;;;;5048504;28;20204;-81
2023/01/20 04:50:53;;;;;;;20.90;11.63;;;;;;;;;;5087575;28;20244;-81
2023/01/20 04:53:19;;;;;;;20.70;12.27;;;;;;;;;;5083999;28;20425;-81
2023/01/20 04:55:45;;;;;;;18.05;12.15;;;;;;;;;;5047275;28;20428;-81
2023/01/20 04:58:11;;;;;;;24.60;11.90;;;;;;;;;;5100697;28;20280;-81
2023/01/20 05:00:37;;;;;;;16.73;11.75;;;;;;;;;;5074777;28;20190;-81
2023/01/20 05:03:04;;;;;;;23.10;13.27;;;;;;;;;;5065410;28;20187;-82
2023/01/20 05:05:30;;;;;;;22.70;13.75;;;;;;;;;;5077098;28;20418;-81
2023/01/20 05:07:57;;;;;;;20.40;12.95;;;;;;;;;;5061585;28;20696;-82
2023/01/20 05:10:23;;;;;;;22.25;12.90;;;;;;;;;;5076302;28;20525;-81
2023/01/20 05:12:49;;;;;;;24.20;12.90;;;;;;;;;;5061818;28;20184;-81
2023/01/20 05:15:15;;;;;;;18.50;9.88;;;;;;;;;;5086078;28;20195;-81
2023/01/20 05:17:41;;;;;;;17.00;10.23;;;;;;;;;;5085166;28;20190;-81
2023/01/20 05:20:07;;;;;;;14.63;9.30;;;;;;;;;;5069088;28;20184;-81
2023/01/20 05:22:33;;;;;;;16.30;10.68;;;;;;;;;;5044740;28;20456;-82
2023/01/20 05:24:59;;;;;;;17.52;10.43;;;;;;;;;;5029410;28;20191;-81
2023/01/20 05:27:25;;;;;;;15.25;10.73;;;;;;;;;;5046468;28;20208;-82
2023/01/20 05:29:51;;;;;;;16.33;11.07;;;;;;;;;;5083083;28;20555;-82
2023/01/20 05:32:17;;;;;;;24.53;13.10;;;;;;;;;;5053097;28;20180;-81
2023/01/20 05:34:43;;;;;;;20.67;11.60;;;;;;;;;;5061342;28;20513;-82
2023/01/20 05:37:09;;;;;;;17.23;10.63;;;;;;;;;;5052442;28;20829;-81
2023/01/20 05:39:35;;;;;;;15.82;10.25;;;;;;;;;;5065600;28;20426;-81
2023/01/20 05:42:01;;;;;;;15.27;10.03;;;;;;;;;;5053262;28;20631;-82
2023/01/20 05:44:28;;;;;;;19.92;11.68;;;;;;;;;;5063092;28;20884;-82
2023/01/20 05:46:54;;;;;;;19.38;10.77;;;;;;;;;;5058138;28;20208;-81
2023/01/20 05:49:20;;;;;;;20.93;11.10;;;;;;;;;;5044036;28;20187;-81
2023/01/20 05:51:46;;;;;;;14.90;9.73;;;;;;;;;;5067959;28;20542;-81
2023/01/20 05:54:12;;;;;;;14.57;10.10;;;;;;;;;;5054782;28;20425;-81
2023/01/20 05:56:38;;;;;;;18.97;9.90;;;;;;;;;;5064317;28;20187;-81
2023/01/20 05:59:05;;;;;;;12.18;9.13;;;;;;;;;;5022124;28;20421;-81
2023/01/20 06:01:31;;;;;;;14.15;9.32;;;;;;;;;;5039271;28;20687;-82
2023/01/20 06:03:57;;;;;;;16.33;9.02;;;;;;;;;;5037033;28;20287;-83
2023/01/20 06:06:23;;;;;;;13.33;9.30;;;;;;;;;;5024052;28;20217;-83
2023/01/20 06:08:51;;;;;;;15.23;9.82;;;;;;;;;;5055728;28;20436;-82
2023/01/20 06:11:17;;;;;;;13.88;9.00;;;;;;;;;;5076680;28;20257;-82
2023/01/20 06:13:43;;;;;;;14.55;9.80;;;;;;;;;;5069034;28;20184;-82
2023/01/20 06:16:11;;;;;;;14.32;9.18;;;;;;;;;;5061723;28;20261;-82
2023/01/20 06:18:37;;;;;;;14.50;9.50;;;;;;;;;;5038703;28;20183;-82
2023/01/20 06:21:03;;;;;;;12.13;9.15;;;;;;;;;;5057030;28;20180;-82
2023/01/20 06:23:29;;;;;;;14.50;9.90;;;;;;;;;;5061730;28;20240;-83
2023/01/20 06:26:02;;;;;;;15.05;8.43;;;;;;;;;;5060128;28;20211;-82
2023/01/20 06:28:28;;;;;;;14.45;9.20;;;;;;;;;;5081062;28;20208;-82
2023/01/20 06:31:08;;;;;;;14.85;9.52;;;;;;;;;;5079132;28;20280;-81
2023/01/20 06:33:34;;;;;;;17.40;11.35;;;;;;;;;;5052532;28;20188;-82
2023/01/20 06:36:00;;;;;;;14.43;9.27;;;;;;;;;;5069055;28;20600;-82
2023/01/20 06:38:27;;;;;;;14.13;9.30;;;;;;;;;;5062092;28;20191;-82
2023/01/20 06:41:01;;;;;;;16.25;9.20;;;;;;;;;;5040746;28;20177;-81
2023/01/20 06:43:33;;;;;;;14.05;7.50;;;;;;;;;;5082633;28;20313;-82
2023/01/20 06:46:04;;;;;;;14.25;8.73;;;;;;;;;;5068531;28;20180;-81
2023/01/20 06:48:30;;;;;;;14.43;8.80;;;;;;;;;;5083300;28;20553;-84
2023/01/20 06:51:00;;;;;;;14.18;9.30;;;;;;;;;;5044068;28;20195;-82
2023/01/20 06:53:26;;;;;;;12.73;8.48;;;;;;;;;;5033781;28;20181;-83
2023/01/20 06:55:56;;;;;;;12.57;9.35;;;;;;;;;;5042547;28;20241;-82
2023/01/20 06:58:26;;;;;;;10.65;8.60;;;;;;;;;;5061137;28;20184;-82
2023/01/20 07:00:52;;;;;;;15.15;8.82;;;;;;;;;;5040814;28;20500;-82
2023/01/20 07:03:18;;;;;;;14.88;8.80;;;;;;;;;;5059324;28;20270;-79
2023/01/20 07:05:44;;;;;;;10.38;7.65;;;;;;;;;;5049321;28;20668;-78
2023/01/20 07:08:10;;;;;;;13.02;8.82;;;;;;;;;;5052192;28;20321;-82
2023/01/20 07:10:36;;;;;;;11.93;7.50;;;;;;;;;;5078851;28;20183;-83
2023/01/20 07:13:02;;;;;;;17.58;7.93;;;;;;;;;;5050053;28;20215;-83
2023/01/20 07:15:28;;;;;;;13.20;8.93;;;;;;;;;;5080027;28;20223;-82
2023/01/20 07:17:54;;;;;;;11.73;8.40;;;;;;;;;;5024324;28;20452;-82
2023/01/20 07:20:20;;;;;;;12.20;7.30;;;;;;;;;;5058745;28;20938;-83
2023/01/20 07:22:46;;;;;;;12.27;8.17;;;;;;;;;;5066427;28;20467;-82
2023/01/20 07:25:12;;;;;;;12.90;8.17;;;;;;;;;;5089477;28;20415;-83
2023/01/20 07:27:38;;;;;;;12.50;7.33;;;;;;;;;;5064474;28;20577;-81
2023/01/20 07:30:04;;;;;;;11.37;7.70;;;;;;;;;;5038699;28;20426;-82
2023/01/20 07:32:30;;;;;;;11.32;8.23;;;;;;;;;;5054904;28;20403;-82
2023/01/20 07:34:56;;;;;;;19.80;8.30;;;;;;;;;;5049095;28;20188;-82
2023/01/20 07:37:22;;;;;;;10.53;8.30;;;;;;;;;;5032847;28;20507;-82
2023/01/20 07:39:48;;;;;;;13.18;8.13;;;;;;;;;;5082552;28;20434;-82
2023/01/20 07:42:14;;;;;;;11.10;8.00;;;;;;;;;;5045492;28;20195;-82
2023/01/20 07:44:40;;;;;;;13.15;7.85;;;;;;;;;;5057753;28;20414;-82
2023/01/20 07:47:06;;;;;;;14.80;7.80;;;;;;;;;;5043107;28;20622;-82
2023/01/20 07:49:32;;;;;;;9.53;7.57;;;;;;;;;;5025558;28;20424;-83
2023/01/20 07:51:58;;;;;;;11.10;6.80;;;;;;;;;;5057885;28;20427;-82
2023/01/20 07:54:24;;;;;;;12.95;6.78;;;;;;;;;;5086543;28;20906;-82
2023/01/20 07:56:50;;;;;;;10.60;7.00;;;;;;;;;;5057240;28;20365;-82
2023/01/20 07:59:16;;;;;;;9.60;6.87;;;;;;;;;;5041490;28;20885;-82
2023/01/20 08:01:43;;;;;;;10.02;5.60;;;;;;;;;;5067001;28;20403;-81
2023/01/20 08:04:09;;;;;;;9.75;6.55;;;;;;;;;;5063874;28;20539;-82
2023/01/20 08:06:34;;;;;;;11.70;6.60;;;;;;;;;;5050033;28;20171;-85
2023/01/20 08:09:01;;;;;;;8.50;5.97;;;;;;;;;;5046735;28;20693;-81
2023/01/20 08:11:27;;;;;;;11.23;6.10;;;;;;;;;;5059735;28;20423;-82
2023/01/20 08:13:53;;;;;;;11.77;6.82;;;;;;;;;;5057799;28;20179;-81
2023/01/20 08:16:19;;;;;;;11.48;6.93;;;;;;;;;;5068059;28;20196;-80
2023/01/20 08:18:46;;;;;;;19.58;8.65;;;;;;;;;;5049599;28;20279;-80
2023/01/20 08:21:31;;;;;;;15.88;8.23;;;;;;;;;;5038538;28;20185;-81
2023/01/20 08:24:01;;;;;;;13.82;8.02;;;;;;;;;;5044445;28;20210;-81
2023/01/20 08:26:28;;;;;;;15.10;9.20;;;;;;;;;;5057923;28;20179;-80
2023/01/20 08:28:55;;;;;;;10.98;7.07;;;;;;;;;;5054974;28;20180;-80
2023/01/20 08:31:21;;;;;;;18.77;9.73;;;;;;;;;;5034154;28;20189;-80
2023/01/20 08:33:48;;;;;;;12.05;8.02;;;;;;;;;;5066274;28;20266;-83
2023/01/20 08:36:15;;;;;;;16.65;8.18;;;;;;;;;;5068919;28;20179;-80
2023/01/20 08:38:42;;;;;;;8.80;6.22;;;;;;;;;;5074689;28;20185;-86
2023/01/20 08:41:13;;;;;;;8.38;5.47;;;;;;;;;;5071230;28;20246;-86
2023/01/20 08:43:39;;;;;;;9.15;6.40;;;;;;;;;;5060141;28;20219;-79
2023/01/20 08:46:07;;;;;;;13.60;8.35;;;;;;;;;;5061801;28;20638;-79
2023/01/20 08:48:33;;;;;;;18.10;9.45;;;;;;;;;;5046624;28;20204;-78
2023/01/20 08:50:59;;;;;;;14.32;9.40;;;;;;;;;;5049084;28;20230;-79
2023/01/20 08:53:25;;;;;;;12.47;7.43;;;;;;;;;;5047700;28;20191;-80
2023/01/20 08:55:58;;;;;;;9.98;6.72;;;;;;;;;;5049396;28;20779;-79
2023/01/20 08:58:25;;;;;;;12.05;7.40;;;;;;;;;;5062987;28;20191;-78
2023/01/20 09:00:51;;;;;;;10.45;6.90;;;;;;;;;;5056879;28;20182;-78
2023/01/20 09:03:17;;;;;;;11.30;6.88;;;;;;;;;;5094613;28;20179;-78
2023/01/20 09:05:43;;;;;;;8.63;6.15;;;;;;;;;;5068015;28;20275;-79
2023/01/20 09:08:09;;;;;;;10.52;6.60;;;;;;;;;;5088611;28;20313;-79
2023/01/20 09:10:35;;;;;;;12.70;7.03;;;;;;;;;;5059160;28;20188;-78
2023/01/20 09:13:01;;;;;;;12.15;7.65;;;;;;;;;;5072928;28;20296;-79
2023/01/20 09:15:27;;;;;;;9.13;7.40;;;;;;;;;;5059640;28;20207;-78
2023/01/20 09:17:53;;;;;;;10.60;7.35;;;;;;;;;;5067531;28;20521;-79
2023/01/20 09:20:19;;;;;;;12.20;6.40;;;;;;;;;;5082857;28;20220;-79
2023/01/20 09:22:45;;;;;;;10.50;6.85;;;;;;;;;;5055861;28;20421;-79
2023/01/20 09:25:11;;;;;;;10.67;6.27;;;;;;;;;;5054805;28;20182;-79
2023/01/20 09:27:37;;;;;;;10.52;7.45;;;;;;;;;;5061454;28;20493;-80
2023/01/20 09:30:03;;;;;;;9.63;7.50;;;;;;;;;;5047520;28;20637;-79
2023/01/20 09:32:29;;;;;;;13.68;7.15;;;;;;;;;;5045612;28;20271;-79
2023/01/20 09:34:58;;;;;;;9.02;7.00;;;;;;;;;;5035246;28;20208;-80
2023/01/20 09:45:56;;;;;;;10.82;7.28;;;;;;;;;;5058211;28;20254;-80
2023/01/20 09:54:25;;;;;;;15.32;8.30;;;;;;;;;;5067569;28;20187;-80
2023/01/20 09:56:53;;;;;;;9.70;7.45;;;;;;;;;;5063583;28;20188;-80
2023/01/20 09:59:19;;;;;;;8.13;5.95;;;;;;;;;;5052764;28;20177;-79
2023/01/20 10:01:47;;;;;;;9.48;5.68;;;;;;;;;;5056157;28;20180;-80
2023/01/20 10:04:13;;;;;;;7.55;5.28;;;;;;;;;;5067057;28;20177;-81
2023/01/20 10:06:39;;;;;;;8.27;6.00;;;;;;;;;;5061921;28;20200;-79
2023/01/20 10:09:09;;;;;;;11.40;7.00;;;;;;;;;;5039904;28;20466;-79
2023/01/20 10:11:39;;;;;;;7.82;5.90;;;;;;;;;;5070132;28;20939;-79
2023/01/20 10:14:09;;;;;;;9.80;6.53;;;;;;;;;;5050018;28;20262;-79
2023/01/20 10:16:38;;;;;;;13.23;6.57;;;;;;;;;;5071708;28;20183;-79
2023/01/20 10:19:09;;;;;;;9.02;6.38;;;;;;;;;;5085474;28;20275;-79
2023/01/20 10:21:37;;;;;;;7.90;5.95;;;;;;;;;;5062093;28;20505;-80
2023/01/20 10:24:09;;;;;;;13.43;8.00;;;;;;;;;;5061190;28;20177;-80
2023/01/20 10:26:56;;;;;;;9.63;7.15;;;;;;;;;;5051749;28;20244;-79
2023/01/20 10:29:28;;;;;;;16.88;8.90;;;;;;;;;;5087355;28;20172;-79
2023/01/20 10:31:58;;;;;;;9.52;7.28;;;;;;;;;;5077641;28;20172;-79
2023/01/20 10:34:27;;;;;;;12.80;7.03;;;;;;;;;;5093211;28;20200;-79
2023/01/20 10:36:58;;;;;;;8.43;6.00;;;;;;;;;;5058753;28;20185;-79
2023/01/20 10:39:37;;;;;;;7.63;6.78;;;;;;;;;;5040979;28;20189;-79
2023/01/20 10:42:04;;;;;;;9.20;6.88;;;;;;;;;;5039903;28;20185;-79
2023/01/20 10:44:33;;;;;;;11.40;7.75;;;;;;;;;;5057556;28;20184;-79
2023/01/20 10:47:15;;;;;;;10.80;6.55;;;;;;;;;;5039610;28;20205;-79
2023/01/20 10:49:41;;;;;;;10.98;6.57;;;;;;;;;;5039400;28;20191;-79
2023/01/20 10:52:26;;;;;;;10.63;6.47;;;;;;;;;;5039386;28;20520;-79
2023/01/20 10:54:52;;;;;;;10.45;7.88;;;;;;;;;;5041447;28;20446;-79
2023/01/20 10:57:18;;;;;;;14.10;8.10;;;;;;;;;;5074936;28;20181;-79
2023/01/20 10:59:46;;;;;;;16.33;6.93;;;;;;;;;;5070090;28;20786;-80
2023/01/20 11:02:28;;;;;;;9.70;7.18;;;;;;;;;;5057021;28;20203;-79
2023/01/20 11:04:57;;;;;;;8.65;6.20;;;;;;;;;;5038983;28;20525;-80
2023/01/20 11:07:24;;;;;;;12.02;6.95;;;;;;;;;;5066697;28;20235;-79
2023/01/20 11:09:50;;;;;;;13.45;7.65;;;;;;;;;;5059162;28;20181;-79
2023/01/20 11:12:17;;;;;;;9.32;6.22;;;;;;;;;;5049970;28;20215;-79
2023/01/20 11:14:44;;;;;;;12.35;7.50;;;;;;;;;;5092655;28;20177;-79
2023/01/20 11:17:19;;;;;;;5.68;5.13;;;;;;;;;;5068874;28;20188;-79
2023/01/20 11:19:45;;;;;;;8.70;6.82;;;;;;;;;;5042245;28;20633;-79
2023/01/20 11:22:13;;;;;;;8.95;5.93;;;;;;;;;;5092360;28;20261;-78
2023/01/20 11:24:43;;;;;;;9.60;6.72;;;;;;;;;;5073119;28;20179;-78
2023/01/20 11:27:20;;;;;;;9.30;6.65;;;;;;;;;;5037640;28;20209;-79
2023/01/20 11:29:49;;;;;;;9.98;5.80;;;;;;;;;;5067485;28;20237;-79
2023/01/20 11:32:35;;;;;;;9.68;6.20;;;;;;;;;;5056431;28;20177;-79
2023/01/20 11:35:17;;;;;;;8.50;6.22;;;;;;;;;;5038201;28;20183;-79
2023/01/20 11:37:43;;;;;;;9.32;6.32;;;;;;;;;;5056478;28;20516;-79
2023/01/20 11:40:23;;;;;;;9.43;7.15;;;;;;;;;;5022400;28;20195;-79
2023/01/20 11:42:50;;;;;;;10.38;7.18;;;;;;;;;;5086212;28;20180;-80
2023/01/20 11:45:33;;;;;;;8.23;6.30;;;;;;;;;;5091614;28;20179;-80
2023/01/20 11:48:06;;;;;;;9.38;6.63;;;;;;;;;;5076114;28;20210;-79
2023/01/20 11:50:32;;;;;;;7.20;5.25;;;;;;;;;;5076221;28;20250;-79
2023/01/20 11:53:12;;;;;;;9.52;7.47;;;;;;;;;;5060783;28;20207;-79
2023/01/20 11:55:55;;;;;;;11.77;7.13;;;;;;;;;;5069767;28;20177;-79
2023/01/20 11:58:25;;;;;;;10.40;6.65;;;;;;;;;;5076224;28;20177;-79
2023/01/20 12:00:59;;;;;;;10.48;7.22;;;;;;;;;;5081810;28;20172;-80
2023/01/20 12:03:50;;;;;;;10.88;6.43;;;;;;;;;;5091843;28;20259;-78
2023/01/20 12:06:30;;;;;;;8.45;6.50;;;;;;;;;;5076234;28;20195;-79
2023/01/20 12:09:03;;;;;;;9.82;6.15;;;;;;;;;;5076413;28;20226;-79
2023/01/20 12:11:34;;;;;;;10.25;7.18;;;;;;;;;;5091556;28;20728;-78
2023/01/20 12:14:19;;;;;;;10.77;6.60;;;;;;;;;;5078309;28;20184;-78
2023/01/20 12:17:00;;;;;;;6.95;5.93;;;;;;;;;;5056703;28;20158;-79
2023/01/20 12:19:30;;;;;;;8.77;6.57;;;;;;;;;;5038745;28;20186;-78
2023/01/20 12:22:00;;;;;;;9.18;6.60;;;;;;;;;;5018005;28;20630;-78
2023/01/20 12:25:06;;;;;;;7.97;4.75;;;;;;;;;;5051465;28;20224;-78
2023/01/20 12:27:20;;;;;;;9.02;6.10;;;;;;;;;;5068500;28;20230;-78
2023/01/20 12:29:48;;;;;;;6.90;5.70;;;;;;;;;;5093979;28;20194;-78
2023/01/20 12:32:14;;;;;;;6.28;4.78;;;;;;;;;;5082908;28;20627;-78
2023/01/20 12:34:40;;;;;;;5.70;3.97;;;;;;;;;;5059352;28;20184;-78
2023/01/20 12:37:32;;;;;;;5.18;4.68;;;;;;;;;;5059679;28;20186;-82
2023/01/20 12:40:06;;;;;;;9.55;4.65;;;;;;;;;;5038491;28;20334;-78
2023/01/20 12:42:41;;;;;;;16.63;7.68;;;;;;;;;;5089504;28;20260;-80
2023/01/20 12:45:10;;;;;;;7.53;5.13;;;;;;;;;;5075975;28;20641;-79
2023/01/20 12:47:36;;;;;;;8.27;5.85;;;;;;;;;;5041411;28;20273;-79
2023/01/20 12:50:20;;;;;;;8.77;6.17;;;;;;;;;;5040932;28;20174;-80
2023/01/20 12:53:12;;;;;;;8.80;6.90;;;;;;;;;;5041354;28;21007;-79
2023/01/20 12:55:58;;;;;;;10.68;6.05;;;;;;;;;;5032328;28;20205;-79
2023/01/20 12:58:30;;;;;;;8.00;6.07;;;;;;;;;;5034760;28;20166;-81
2023/01/20 13:01:16;;;;;;;7.65;5.85;;;;;;;;;;5042415;28;20184;-80
2023/01/20 13:03:42;;;;;;;7.68;5.68;;;;;;;;;;5044331;28;20680;-81
2023/01/20 13:06:08;;;;;;;7.80;5.37;;;;;;;;;;5071844;28;20708;-80
2023/01/20 13:08:43;;;;;;;7.00;5.50;;;;;;;;;;5063941;28;20776;-81
2023/01/20 13:11:23;;;;;;;7.70;6.70;;;;;;;;;;5058978;28;20501;-79
2023/01/20 13:13:57;;;;;;;10.05;7.65;;;;;;;;;;5059235;28;20584;-79
2023/01/20 13:16:31;;;;;;;9.27;6.03;;;;;;;;;;5059014;28;20165;-80
2023/01/20 13:19:03;;;;;;;10.32;7.05;;;;;;;;;;5040958;28;20178;-79
2023/01/20 13:21:30;;;;;;;9.27;6.25;;;;;;;;;;5041228;28;20179;-79
2023/01/20 13:23:58;;;;;;;8.85;6.30;;;;;;;;;;5058880;28;20211;-80
2023/01/20 13:26:24;;;;;;;7.60;5.20;;;;;;;;;;5051511;28;20636;-80
2023/01/20 13:28:51;;;;;;;8.27;6.25;;;;;;;;;;5063742;28;20208;-80
2023/01/20 13:31:32;;;;;;;12.85;6.90;;;;;;;;;;5040710;28;20184;-79
2023/01/20 13:34:17;;;;;;;10.25;6.78;;;;;;;;;;5059197;28;20175;-79
2023/01/20 13:37:03;;;;;;;8.38;5.97;;;;;;;;;;5079093;28;20177;-79
2023/01/20 13:39:31;;;;;;;8.63;6.07;;;;;;;;;;5089050;28;20179;-79
2023/01/20 13:41:57;;;;;;;9.25;5.35;;;;;;;;;;5058797;28;20175;-79
2023/01/20 13:44:36;;;;;;;9.50;6.85;;;;;;;;;;5058782;28;20255;-79
2023/01/20 13:47:03;;;;;;;8.35;5.90;;;;;;;;;;5039823;28;20210;-79
2023/01/20 13:49:49;;;;;;;7.35;5.55;;;;;;;;;;5060160;28;20522;-79
2023/01/20 13:52:28;;;;;;;10.70;7.20;;;;;;;;;;5058719;28;20174;-79
2023/01/20 13:54:56;;;;;;;9.23;6.28;;;;;;;;;;5093899;28;20172;-80
2023/01/20 13:57:23;;;;;;;7.63;5.97;;;;;;;;;;5083295;28;20238;-79
2023/01/20 13:59:49;;;;;;;7.95;6.35;;;;;;;;;;5077207;28;20262;-78
2023/01/20 14:02:22;;;;;;;7.63;5.30;;;;;;;;;;5093430;28;20525;-78
2023/01/20 14:04:49;;;;;;;6.53;4.95;;;;;;;;;;5093392;28;20182;-79
2023/01/20 14:07:25;;;;;;;8.40;5.40;;;;;;;;;;5076880;28;20255;-79
2023/01/20 14:09:51;;;;;;;8.57;5.93;;;;;;;;;;5077181;28;20611;-78
2023/01/20 14:12:17;;;;;;;11.07;5.85;;;;;;;;;;5092927;28;20188;-79
2023/01/20 14:14:46;;;;;;;6.88;5.10;;;;;;;;;;5093193;28;20190;-78
2023/01/20 14:17:15;;;;;;;6.80;4.68;;;;;;;;;;5064225;28;20193;-79
2023/01/20 14:19:45;;;;;;;5.68;4.35;;;;;;;;;;5048456;28;20589;-79
2023/01/20 14:22:19;;;;;;;10.75;6.15;;;;;;;;;;5071379;28;20247;-79
2023/01/20 14:24:46;;;;;;;9.60;5.32;;;;;;;;;;5040060;28;20180;-79
2023/01/20 14:27:27;;;;;;;5.60;4.65;;;;;;;;;;5030508;28;20203;-79
2023/01/20 14:29:53;;;;;;;7.45;5.38;;;;;;;;;;5036337;28;20189;-80
2023/01/20 14:32:31;;;;;;;11.55;5.50;;;;;;;;;;5069700;28;20173;-79
2023/01/20 14:34:57;;;;;;;8.60;5.82;;;;;;;;;;5077421;28;20202;-79
2023/01/20 14:37:35;;;;;;;9.00;5.32;;;;;;;;;;5059115;28;20187;-79
2023/01/20 14:40:05;;;;;;;8.68;4.88;;;;;;;;;;5071675;28;20172;-79
2023/01/20 14:42:31;;;;;;;6.35;4.70;;;;;;;;;;5076826;28;20232;-79
2023/01/20 14:44:57;;;;;;;7.73;4.80;;;;;;;;;;5059839;28;20173;-79
2023/01/20 14:47:24;;;;;;;6.07;4.50;;;;;;;;;;5075106;28;20828;-79
2023/01/20 14:49:51;;;;;;;6.10;4.13;;;;;;;;;;5075744;28;20186;-79
2023/01/20 14:52:20;;;;;;;6.72;5.30;;;;;;;;;;5074403;28;20204;-80
2023/01/20 14:54:48;;;;;;;7.65;4.57;;;;;;;;;;5091930;28;20191;-80
2023/01/20 14:57:17;;;;;;;6.85;5.07;;;;;;;;;;5058965;28;20264;-79